createdAt,value
2024-05-09T00:00:37.921Z,49.76
2024-05-09T00:01:32.320Z,49.80
2024-05-09T00:02:31.427Z,50.16
2024-05-09T00:03:31.427Z,50.16
2024-05-09T00:04:31.376Z,49.89
2024-05-09T00:05:31.487Z,48.46
2024-05-09T00:06:31.486Z,50.00
2024-05-09T00:07:31.515Z,50.74
2024-05-09T00:08:31.696Z,50.22
2024-05-09T00:09:31.654Z,50.44
2024-05-09T00:10:36.143Z,50.36
2024-05-09T00:11:32.887Z,50.39
2024-05-09T00:12:31.983Z,50.51
2024-05-09T00:13:31.939Z,50.46
2024-05-09T00:14:32.319Z,50.69
2024-05-09T00:15:32.054Z,50.68
2024-05-09T00:16:32.086Z,52.15
2024-05-09T00:17:32.306Z,53.38
2024-05-09T00:18:32.324Z,51.89
2024-05-09T00:19:32.430Z,53.03
2024-05-09T00:20:37.731Z,52.05
2024-05-09T00:21:33.361Z,51.67
2024-05-09T00:22:32.462Z,51.40
2024-05-09T00:23:32.661Z,49.63
2024-05-09T00:24:32.542Z,49.88
2024-05-09T00:25:32.609Z,51.55
2024-05-09T00:26:32.766Z,50.00
2024-05-09T00:27:32.743Z,50.00
2024-05-09T00:28:32.800Z,50.61
2024-05-09T00:29:33.003Z,50.56
2024-05-09T00:30:35.562Z,50.00
2024-05-09T00:31:33.063Z,50.05
2024-05-09T00:32:33.368Z,49.11
2024-05-09T00:33:33.357Z,49.70
2024-05-09T00:34:33.256Z,47.27
2024-05-09T00:35:33.490Z,47.35
2024-05-09T00:36:33.350Z,50.00
2024-05-09T00:37:33.411Z,49.97
2024-05-09T00:38:33.552Z,49.99
2024-05-09T00:39:33.537Z,48.84
2024-05-09T00:40:39.059Z,47.76
2024-05-09T00:41:34.779Z,47.12
2024-05-09T00:42:33.726Z,46.62
2024-05-09T00:43:33.775Z,47.37
2024-05-09T00:44:33.905Z,44.97
2024-05-09T00:45:33.932Z,46.08
2024-05-09T00:46:33.971Z,49.74
2024-05-09T00:47:34.111Z,52.17
2024-05-09T00:48:34.119Z,50.86
2024-05-09T00:49:34.436Z,51.23
2024-05-09T00:50:36.859Z,52.04
2024-05-09T00:51:34.337Z,51.33
2024-05-09T00:52:34.390Z,50.94
2024-05-09T00:53:34.672Z,51.88
2024-05-09T00:54:34.524Z,51.81
2024-05-09T00:55:34.572Z,51.80
2024-05-09T00:56:34.686Z,52.63
2024-05-09T00:57:34.703Z,53.39
2024-05-09T00:58:34.785Z,53.75
2024-05-09T00:59:34.904Z,54.07
2024-05-09T01:00:39.339Z,54.48
2024-05-09T01:01:36.008Z,53.45
2024-05-09T01:02:35.247Z,53.49
2024-05-09T01:03:35.327Z,53.54
2024-05-09T01:04:35.247Z,53.89
2024-05-09T01:05:35.692Z,54.00
2024-05-09T01:06:35.285Z,54.40
2024-05-09T01:07:35.331Z,54.98
2024-05-09T01:08:35.404Z,55.11
2024-05-09T01:09:35.473Z,54.90
2024-05-09T01:10:36.492Z,55.68
2024-05-09T01:11:35.782Z,56.26
2024-05-09T01:12:35.988Z,55.44
2024-05-09T01:13:35.959Z,56.27
2024-05-09T01:14:35.926Z,54.45
2024-05-09T01:15:36.130Z,54.20
2024-05-09T01:16:36.042Z,54.52
2024-05-09T01:17:36.371Z,54.16
2024-05-09T01:18:36.303Z,53.35
2024-05-09T01:19:36.592Z,52.43
2024-05-09T01:20:41.551Z,50.77
2024-05-09T01:21:37.368Z,51.15
2024-05-09T01:22:36.444Z,51.21
2024-05-09T01:23:36.767Z,51.21
2024-05-09T01:24:36.541Z,50.99
2024-05-09T01:25:36.659Z,50.16
2024-05-09T01:26:36.710Z,50.00
2024-05-09T01:27:36.733Z,50.00
2024-05-09T01:28:37.390Z,50.03
2024-05-09T01:29:36.888Z,49.96
2024-05-09T01:30:37.930Z,49.33
2024-05-09T01:31:37.106Z,49.39
2024-05-09T01:32:37.133Z,48.72
2024-05-09T01:33:38.413Z,48.12
2024-05-09T01:34:37.142Z,46.78
2024-05-09T01:35:37.445Z,48.07
2024-05-09T01:36:37.262Z,48.89
2024-05-09T01:37:37.348Z,47.44
2024-05-09T01:38:37.472Z,51.07
2024-05-09T01:39:39.452Z,51.20
2024-05-09T01:40:39.888Z,51.23
2024-05-09T01:41:37.619Z,51.71
2024-05-09T01:42:37.693Z,51.97
2024-05-09T01:43:37.713Z,51.43
2024-05-09T01:44:37.921Z,53.39
2024-05-09T01:45:37.856Z,53.19
2024-05-09T01:46:37.890Z,53.53
2024-05-09T01:47:38.099Z,52.51
2024-05-09T01:48:38.121Z,53.94
2024-05-09T01:49:38.139Z,53.07
2024-05-09T01:50:41.320Z,54.10
2024-05-09T01:51:38.174Z,54.12
2024-05-09T01:52:38.245Z,52.50
2024-05-09T01:53:38.413Z,53.74
2024-05-09T01:54:38.375Z,53.31
2024-05-09T01:55:38.586Z,54.03
2024-05-09T01:56:38.547Z,52.82
2024-05-09T01:57:38.589Z,52.57
2024-05-09T01:58:38.610Z,51.33
2024-05-09T01:59:38.699Z,51.94
2024-05-09T02:00:41.762Z,52.22
2024-05-09T02:01:55.828Z,52.23
2024-05-09T02:02:39.978Z,52.25
2024-05-09T02:03:39.049Z,52.47
2024-05-09T02:04:39.068Z,52.34
2024-05-09T02:05:39.310Z,52.04
2024-05-09T02:06:39.116Z,52.23
2024-05-09T02:07:39.234Z,51.32
2024-05-09T02:08:39.352Z,51.52
2024-05-09T02:09:39.332Z,49.65
2024-05-09T02:10:39.419Z,50.25
2024-05-09T02:11:39.835Z,50.16
2024-05-09T02:12:39.564Z,51.48
2024-05-09T02:13:39.601Z,51.74
2024-05-09T02:14:39.733Z,51.66
2024-05-09T02:15:39.776Z,51.80
2024-05-09T02:16:39.815Z,50.79
2024-05-09T02:17:40.098Z,51.34
2024-05-09T02:18:40.046Z,51.89
2024-05-09T02:19:40.040Z,51.73
2024-05-09T02:20:40.153Z,52.46
2024-05-09T02:21:40.180Z,51.90
2024-05-09T02:22:40.261Z,52.90
2024-05-09T02:23:40.428Z,53.04
2024-05-09T02:24:40.371Z,54.25
2024-05-09T02:25:40.455Z,53.81
2024-05-09T02:26:40.548Z,54.25
2024-05-09T02:27:40.582Z,54.45
2024-05-09T02:28:40.652Z,54.76
2024-05-09T02:29:40.762Z,55.46
2024-05-09T02:30:42.227Z,56.60
2024-05-09T02:31:40.837Z,56.20
2024-05-09T02:32:41.056Z,56.21
2024-05-09T02:33:41.153Z,56.34
2024-05-09T02:34:41.038Z,55.82
2024-05-09T02:35:41.212Z,56.63
2024-05-09T02:36:41.236Z,55.91
2024-05-09T02:37:41.926Z,53.53
2024-05-09T02:38:41.337Z,55.95
2024-05-09T02:39:41.380Z,56.76
2024-05-09T02:40:41.471Z,55.03
2024-05-09T02:41:41.512Z,57.37
2024-05-09T02:42:41.597Z,56.46
2024-05-09T02:43:41.699Z,55.81
2024-05-09T02:44:41.780Z,55.71
2024-05-09T02:45:41.949Z,54.72
2024-05-09T02:46:41.944Z,57.90
2024-05-09T02:47:42.144Z,55.67
2024-05-09T02:48:42.198Z,54.93
2024-05-09T02:49:42.160Z,55.99
2024-05-09T02:50:42.442Z,56.56
2024-05-09T02:51:42.318Z,55.77
2024-05-09T02:52:42.366Z,56.28
2024-05-09T02:53:42.507Z,57.59
2024-05-09T02:54:42.488Z,57.47
2024-05-09T02:55:43.041Z,58.63
2024-05-09T02:56:42.661Z,59.06
2024-05-09T02:57:42.690Z,59.50
2024-05-09T02:58:42.767Z,58.20
2024-05-09T02:59:42.821Z,57.51
2024-05-09T03:00:43.251Z,57.06
2024-05-09T03:01:43.022Z,58.34
2024-05-09T03:02:43.229Z,59.61
2024-05-09T03:03:43.246Z,57.55
2024-05-09T03:04:43.260Z,59.65
2024-05-09T03:05:43.561Z,57.94
2024-05-09T03:06:43.266Z,59.81
2024-05-09T03:07:43.371Z,59.66
2024-05-09T03:08:43.444Z,61.64
2024-05-09T03:09:43.476Z,61.32
2024-05-09T03:10:43.556Z,62.01
2024-05-09T03:11:43.658Z,62.44
2024-05-09T03:12:43.757Z,62.01
2024-05-09T03:13:43.734Z,62.02
2024-05-09T03:14:43.824Z,62.10
2024-05-09T03:15:43.974Z,63.12
2024-05-09T03:16:44.072Z,64.61
2024-05-09T03:17:44.148Z,65.43
2024-05-09T03:18:44.133Z,65.12
2024-05-09T03:19:44.220Z,67.80
2024-05-09T03:20:44.678Z,69.31
2024-05-09T03:21:44.265Z,69.04
2024-05-09T03:22:44.357Z,68.92
2024-05-09T03:23:44.545Z,70.20
2024-05-09T03:24:44.485Z,70.50
2024-05-09T03:25:44.583Z,70.73
2024-05-09T03:26:44.611Z,72.47
2024-05-09T03:27:44.707Z,73.72
2024-05-09T03:28:44.841Z,72.90
2024-05-09T03:29:44.838Z,71.92
2024-05-09T03:30:44.906Z,73.17
2024-05-09T03:31:45.139Z,73.65
2024-05-09T03:32:45.138Z,73.68
2024-05-09T03:33:45.323Z,73.86
2024-05-09T03:34:45.226Z,74.73
2024-05-09T03:35:45.266Z,75.77
2024-05-09T03:36:45.341Z,77.52
2024-05-09T03:37:45.442Z,76.88
2024-05-09T03:38:45.528Z,77.71
2024-05-09T03:39:45.549Z,79.86
2024-05-09T03:40:45.674Z,81.85
2024-05-09T03:41:45.718Z,84.58
2024-05-09T03:42:45.775Z,85.20
2024-05-09T03:43:45.865Z,87.02
2024-05-09T03:44:45.886Z,88.04
2024-05-09T03:45:45.988Z,89.87
2024-05-09T03:46:46.101Z,90.39
2024-05-09T03:47:46.405Z,90.14
2024-05-09T03:48:46.386Z,91.99
2024-05-09T03:49:46.307Z,93.25
2024-05-09T03:50:46.460Z,94.87
2024-05-09T03:51:46.524Z,94.86
2024-05-09T03:52:46.681Z,96.12
2024-05-09T03:53:46.784Z,95.29
2024-05-09T03:54:46.862Z,94.33
2024-05-09T03:55:47.035Z,94.75
2024-05-09T03:56:47.097Z,92.95
2024-05-09T03:57:47.235Z,93.83
2024-05-09T03:58:47.412Z,94.17
2024-05-09T03:59:47.472Z,93.40
2024-05-09T04:00:47.685Z,95.18
2024-05-09T04:01:47.853Z,95.24
2024-05-09T04:02:47.946Z,94.18
2024-05-09T04:03:48.179Z,94.86
2024-05-09T04:04:48.119Z,94.88
2024-05-09T04:05:48.195Z,95.32
2024-05-09T04:06:48.212Z,95.62
2024-05-09T04:07:48.341Z,97.24
2024-05-09T04:08:48.413Z,98.20
2024-05-09T04:09:48.423Z,98.48
2024-05-09T04:10:48.586Z,98.19
2024-05-09T04:11:48.674Z,98.23
2024-05-09T04:12:48.650Z,98.46
2024-05-09T04:13:48.779Z,99.10
2024-05-09T04:14:48.791Z,100.53
2024-05-09T04:15:48.868Z,100.83
2024-05-09T04:16:49.055Z,102.45
2024-05-09T04:17:49.344Z,102.89
2024-05-09T04:18:49.447Z,102.94
2024-05-09T04:19:49.199Z,103.08
2024-05-09T04:20:49.353Z,103.89
2024-05-09T04:21:49.325Z,104.78
2024-05-09T04:22:49.447Z,104.84
2024-05-09T04:23:49.501Z,105.39
2024-05-09T04:24:49.523Z,106.38
2024-05-09T04:25:49.694Z,107.15
2024-05-09T04:26:49.765Z,108.42
2024-05-09T04:27:49.905Z,110.73
2024-05-09T04:28:50.124Z,112.11
2024-05-09T04:29:50.159Z,112.58
2024-05-09T04:30:50.299Z,115.76
2024-05-09T04:31:50.485Z,116.81
2024-05-09T04:32:50.728Z,120.07
2024-05-09T04:33:50.929Z,120.82
2024-05-09T04:34:50.956Z,122.55
2024-05-09T04:35:51.039Z,124.93
2024-05-09T04:36:51.139Z,127.05
2024-05-09T04:37:51.351Z,128.97
2024-05-09T04:38:51.490Z,129.02
2024-05-09T04:39:51.562Z,128.96
2024-05-09T04:40:51.688Z,130.17
2024-05-09T04:41:51.821Z,128.55
2024-05-09T04:42:52.004Z,129.78
2024-05-09T04:43:52.215Z,131.20
2024-05-09T04:44:54.194Z,130.07
2024-05-09T04:45:52.397Z,128.60
2024-05-09T04:46:52.441Z,128.68
2024-05-09T04:47:52.540Z,128.79
2024-05-09T04:48:52.656Z,128.98
2024-05-09T04:50:00.218Z,50.00
2024-05-09T04:51:00.159Z,50.00
2024-05-09T04:52:00.159Z,50.00
2024-05-09T04:53:00.216Z,50.00
2024-05-09T04:54:00.176Z,50.00
2024-05-09T04:55:00.186Z,50.00
2024-05-09T04:56:00.286Z,50.00
2024-05-09T04:57:00.247Z,51.98
2024-05-09T04:58:00.323Z,50.80
2024-05-09T04:59:01.263Z,50.58
2024-05-09T05:00:00.364Z,54.24
2024-05-09T05:01:00.352Z,53.13
2024-05-09T05:02:00.481Z,53.46
2024-05-09T05:03:00.572Z,54.49
2024-05-09T05:04:00.538Z,57.12
2024-05-09T05:05:00.502Z,55.08
2024-05-09T05:06:00.466Z,55.35
2024-05-09T05:07:02.531Z,55.70
2024-05-09T05:08:03.221Z,58.00
2024-05-09T05:09:00.633Z,58.01
2024-05-09T05:10:00.517Z,55.09
2024-05-09T05:11:00.640Z,54.89
2024-05-09T05:12:00.670Z,52.17
2024-05-09T05:13:00.726Z,50.97
2024-05-09T05:14:00.719Z,51.01
2024-05-09T05:15:00.671Z,49.90
2024-05-09T05:16:00.652Z,51.88
2024-05-09T05:17:00.706Z,51.20
2024-05-09T05:18:00.868Z,50.00
2024-05-09T05:19:00.912Z,50.53
2024-05-09T05:20:00.807Z,50.00
2024-05-09T05:21:00.735Z,52.62
2024-05-09T05:22:00.705Z,52.06
2024-05-09T05:23:00.939Z,51.12
2024-05-09T05:24:01.738Z,51.29
2024-05-09T05:25:00.733Z,48.67
2024-05-09T05:26:01.803Z,47.58
2024-05-09T05:27:00.819Z,47.34
2024-05-09T05:28:00.797Z,45.16
2024-05-09T05:29:01.730Z,46.73
2024-05-09T05:30:00.827Z,50.57
2024-05-09T05:31:00.850Z,52.28
2024-05-09T05:32:01.808Z,51.90
2024-05-09T05:33:01.232Z,52.58
2024-05-09T05:34:00.983Z,52.49
2024-05-09T05:35:01.008Z,52.53
2024-05-09T05:36:00.985Z,52.81
2024-05-09T05:37:01.729Z,52.63
2024-05-09T05:38:01.211Z,51.65
2024-05-09T05:39:01.040Z,51.46
2024-05-09T05:40:01.734Z,54.49
2024-05-09T05:41:01.717Z,53.10
2024-05-09T05:42:01.088Z,55.41
2024-05-09T05:43:01.218Z,56.30
2024-05-09T05:44:01.280Z,59.83
2024-05-09T05:45:01.161Z,60.69
2024-05-09T05:46:01.207Z,62.76
2024-05-09T05:47:01.361Z,65.21
2024-05-09T05:48:01.461Z,62.22
2024-05-09T05:49:01.258Z,66.19
2024-05-09T05:50:02.940Z,67.76
2024-05-09T05:51:04.184Z,69.59
2024-05-09T05:52:01.299Z,70.56
2024-05-09T05:53:01.305Z,68.95
2024-05-09T05:54:01.342Z,70.04
2024-05-09T05:55:01.309Z,68.69
2024-05-09T05:56:01.574Z,73.27
2024-05-09T05:57:01.346Z,74.00
2024-05-09T05:58:02.209Z,73.42
2024-05-09T05:59:01.493Z,75.92
2024-05-09T06:00:01.463Z,79.16
2024-05-09T06:01:01.444Z,81.81
2024-05-09T06:02:01.527Z,82.52
2024-05-09T06:03:01.574Z,80.96
2024-05-09T06:04:01.506Z,81.37
2024-05-09T06:05:01.522Z,81.47
2024-05-09T06:06:01.599Z,81.47
2024-05-09T06:07:01.474Z,81.86
2024-05-09T06:08:01.690Z,83.30
2024-05-09T06:09:01.496Z,81.48
2024-05-09T06:10:02.926Z,81.85
2024-05-09T06:11:01.777Z,81.66
2024-05-09T06:12:01.709Z,82.19
2024-05-09T06:13:01.607Z,83.30
2024-05-09T06:14:01.629Z,82.12
2024-05-09T06:15:01.559Z,79.60
2024-05-09T06:16:01.564Z,78.40
2024-05-09T06:17:01.690Z,77.48
2024-05-09T06:18:01.973Z,77.60
2024-05-09T06:19:01.654Z,77.41
2024-05-09T06:20:01.743Z,74.57
2024-05-09T06:21:01.804Z,73.17
2024-05-09T06:22:01.647Z,78.45
2024-05-09T06:23:01.757Z,76.24
2024-05-09T06:24:04.482Z,77.22
2024-05-09T06:25:01.735Z,77.23
2024-05-09T06:26:01.808Z,74.58
2024-05-09T06:27:01.717Z,72.52
2024-05-09T06:28:01.831Z,72.20
2024-05-09T06:29:01.742Z,73.36
2024-05-09T06:30:01.745Z,69.70
2024-05-09T06:31:01.750Z,70.95
2024-05-09T06:32:01.971Z,71.10
2024-05-09T06:33:02.008Z,70.24
2024-05-09T06:34:02.000Z,70.98
2024-05-09T06:35:01.819Z,73.41
2024-05-09T06:36:01.825Z,72.03
2024-05-09T06:37:01.850Z,73.86
2024-05-09T06:38:02.270Z,75.64
2024-05-09T06:39:01.884Z,74.36
2024-05-09T06:40:01.866Z,74.86
2024-05-09T06:41:01.903Z,75.42
2024-05-09T06:42:01.861Z,72.52
2024-05-09T06:43:01.895Z,73.46
2024-05-09T06:44:01.960Z,72.18
2024-05-09T06:45:01.925Z,69.43
2024-05-09T06:46:01.915Z,69.04
2024-05-09T06:47:01.994Z,66.00
2024-05-09T06:48:02.187Z,59.98
2024-05-09T06:49:02.206Z,55.29
2024-05-09T06:50:02.009Z,56.03
2024-05-09T06:51:01.968Z,53.29
2024-05-09T06:52:01.964Z,50.00
2024-05-09T06:53:02.145Z,50.83
2024-05-09T06:54:01.946Z,48.10
2024-05-09T06:55:02.021Z,43.67
2024-05-09T06:56:02.037Z,42.67
2024-05-09T06:57:02.004Z,41.69
2024-05-09T06:58:02.049Z,36.38
2024-05-09T06:59:02.067Z,51.64
2024-05-09T07:00:01.977Z,53.25
2024-05-09T07:01:02.062Z,50.05
2024-05-09T07:02:02.135Z,51.41
2024-05-09T07:03:05.693Z,51.16
2024-05-09T07:04:02.400Z,51.17
2024-05-09T07:05:02.239Z,48.47
2024-05-09T07:06:02.218Z,45.93
2024-05-09T07:07:02.707Z,46.30
2024-05-09T07:08:02.201Z,45.91
2024-05-09T07:09:02.124Z,50.85
2024-05-09T07:10:02.089Z,52.51
2024-05-09T07:11:02.252Z,51.40
2024-05-09T07:12:02.329Z,53.63
2024-05-09T07:13:02.086Z,53.49
2024-05-09T07:14:02.087Z,56.34
2024-05-09T07:15:02.139Z,55.74
2024-05-09T07:16:02.068Z,54.36
2024-05-09T07:17:02.251Z,55.88
2024-05-09T07:18:02.484Z,58.26
2024-05-09T07:19:02.161Z,62.55
2024-05-09T07:20:02.106Z,60.83
2024-05-09T07:21:02.126Z,59.08
2024-05-09T07:22:02.083Z,61.38
2024-05-09T07:23:02.163Z,57.65
2024-05-09T07:24:02.016Z,57.91
2024-05-09T07:25:02.036Z,59.28
2024-05-09T07:26:02.029Z,57.77
2024-05-09T07:27:02.066Z,55.97
2024-05-09T07:28:01.969Z,57.37
2024-05-09T07:29:02.044Z,53.63
2024-05-09T07:30:02.220Z,53.96
2024-05-09T07:31:01.962Z,57.06
2024-05-09T07:32:01.985Z,56.65
2024-05-09T07:33:02.769Z,57.16
2024-05-09T07:34:02.215Z,57.95
2024-05-09T07:35:02.053Z,57.19
2024-05-09T07:36:02.031Z,56.46
2024-05-09T07:37:01.916Z,52.35
2024-05-09T07:38:02.880Z,52.79
2024-05-09T07:39:01.890Z,51.17
2024-05-09T07:40:01.894Z,50.01
2024-05-09T07:41:02.045Z,50.00
2024-05-09T07:42:01.873Z,51.94
2024-05-09T07:43:01.899Z,50.78
2024-05-09T07:44:01.897Z,47.20
2024-05-09T07:45:21.046Z,47.48
2024-05-09T07:47:03.856Z,46.83
2024-05-09T07:53:25.361Z,42.47
2024-05-09T07:53:36.158Z,43.64
2024-05-09T07:54:03.285Z,43.33
2024-05-09T07:55:01.920Z,44.44
2024-05-09T07:56:01.935Z,42.63
2024-05-09T07:57:01.968Z,44.67
2024-05-09T07:58:01.800Z,43.97
2024-05-09T07:59:01.730Z,43.51
2024-05-09T08:00:01.809Z,52.22
2024-05-09T08:01:01.825Z,52.17
2024-05-09T08:02:01.994Z,52.89
2024-05-09T08:03:01.746Z,51.80
2024-05-09T08:04:01.799Z,52.88
2024-05-09T08:05:02.043Z,52.69
2024-05-09T08:06:01.715Z,56.74
2024-05-09T08:07:01.702Z,58.36
2024-05-09T08:08:01.690Z,59.47
2024-05-09T08:09:05.520Z,62.25
2024-05-09T08:10:03.299Z,59.88
2024-05-09T08:11:01.648Z,61.26
2024-05-09T08:12:01.654Z,62.37
2024-05-09T08:13:01.737Z,63.10
2024-05-09T08:14:01.606Z,63.74
2024-05-09T08:15:01.595Z,67.19
2024-05-09T08:16:01.680Z,67.85
2024-05-09T08:17:01.708Z,65.71
2024-05-09T08:18:01.813Z,66.47
2024-05-09T08:19:01.639Z,72.42
2024-05-09T08:20:03.702Z,71.03
2024-05-09T08:21:01.536Z,71.12
2024-05-09T08:22:01.606Z,71.44
2024-05-09T08:23:01.514Z,72.05
2024-05-09T08:24:01.562Z,72.57
2024-05-09T08:25:01.578Z,75.13
2024-05-09T08:26:01.498Z,72.61
2024-05-09T08:27:01.502Z,73.71
2024-05-09T08:28:01.615Z,72.76
2024-05-09T08:29:01.470Z,73.31
2024-05-09T08:30:01.604Z,72.66
2024-05-09T08:31:04.088Z,67.43
2024-05-09T08:32:01.583Z,66.69
2024-05-09T08:33:01.505Z,66.16
2024-05-09T08:34:01.566Z,62.08
2024-05-09T08:35:01.472Z,58.05
2024-05-09T08:36:01.464Z,55.12
2024-05-09T08:37:09.795Z,53.39
2024-05-09T08:38:02.587Z,53.04
2024-05-09T08:39:01.425Z,53.41
2024-05-09T08:40:01.511Z,52.57
2024-05-09T08:41:01.368Z,52.25
2024-05-09T08:42:01.389Z,48.42
2024-05-09T08:43:01.440Z,51.81
2024-05-09T08:44:01.378Z,51.64
2024-05-09T08:45:01.374Z,51.15
2024-05-09T08:46:01.442Z,53.11
2024-05-09T08:47:01.326Z,53.84
2024-05-09T08:48:01.568Z,52.89
2024-05-09T08:49:01.492Z,51.51
2024-05-09T08:50:01.574Z,52.23
2024-05-09T08:51:01.332Z,52.77
2024-05-09T08:52:01.357Z,50.72
2024-05-09T08:53:01.377Z,55.27
2024-05-09T08:54:01.346Z,52.24
2024-05-09T08:55:01.302Z,52.26
2024-05-09T08:56:01.301Z,50.31
2024-05-09T08:57:01.254Z,49.93
2024-05-09T08:58:01.399Z,53.66
2024-05-09T08:59:01.279Z,50.34
2024-05-09T09:00:01.268Z,50.00
2024-05-09T09:01:01.425Z,50.00
2024-05-09T09:02:01.519Z,55.27
2024-05-09T09:03:01.411Z,50.57
2024-05-09T09:04:01.543Z,51.71
2024-05-09T09:05:01.473Z,53.18
2024-05-09T09:06:01.409Z,50.47
2024-05-09T09:07:03.365Z,51.10
2024-05-09T09:08:01.409Z,51.43
2024-05-09T09:09:01.447Z,50.03
2024-05-09T09:10:01.518Z,50.00
2024-05-09T09:11:01.473Z,50.51
2024-05-09T09:12:01.527Z,50.00
2024-05-09T09:13:01.671Z,50.45
2024-05-09T09:14:01.588Z,50.98
2024-05-09T09:15:01.601Z,50.38
2024-05-09T09:16:03.613Z,50.00
2024-05-09T09:17:01.611Z,51.73
2024-05-09T09:18:01.814Z,51.10
2024-05-09T09:19:01.715Z,50.44
2024-05-09T09:20:01.788Z,51.34
2024-05-09T09:21:01.687Z,50.76
2024-05-09T09:22:03.304Z,50.86
2024-05-09T09:23:01.655Z,54.10
2024-05-09T09:24:02.307Z,50.00
2024-05-09T09:25:02.424Z,50.00
2024-05-09T09:26:01.773Z,50.41
2024-05-09T09:27:01.687Z,50.68
2024-05-09T09:28:01.770Z,51.79
2024-05-09T09:29:01.695Z,50.00
2024-05-09T09:30:01.684Z,53.74
2024-05-09T09:31:01.865Z,49.87
2024-05-09T09:32:01.696Z,52.12
2024-05-09T09:33:02.599Z,53.22
2024-05-09T09:34:02.421Z,52.28
2024-05-09T09:35:01.763Z,53.46
2024-05-09T09:36:03.303Z,52.21
2024-05-09T09:37:03.329Z,50.00
2024-05-09T09:38:01.773Z,50.00
2024-05-09T09:39:01.650Z,50.90
2024-05-09T09:40:03.832Z,51.64
2024-05-09T09:41:01.891Z,50.39
2024-05-09T09:42:01.692Z,51.02
2024-05-09T09:43:01.675Z,51.96
2024-05-09T09:44:01.639Z,50.00
2024-05-09T09:45:04.796Z,50.87
2024-05-09T09:46:01.652Z,48.21
2024-05-09T09:47:01.606Z,45.53
2024-05-09T09:48:01.581Z,44.98
2024-05-09T09:49:02.769Z,40.10
2024-05-09T09:50:02.344Z,38.93
2024-05-09T09:51:01.579Z,52.33
2024-05-09T09:52:01.508Z,52.62
2024-05-09T09:53:01.512Z,54.48
2024-05-09T09:54:01.487Z,52.44
2024-05-09T09:55:01.445Z,52.63
2024-05-09T09:56:01.454Z,51.37
2024-05-09T09:57:01.411Z,52.90
2024-05-09T09:58:01.527Z,50.00
2024-05-09T09:59:01.355Z,56.45
2024-05-09T10:00:01.421Z,55.28
2024-05-09T10:01:02.378Z,57.79
2024-05-09T10:02:01.498Z,54.17
2024-05-09T10:03:01.810Z,55.40
2024-05-09T10:04:01.435Z,53.85
2024-05-09T10:05:01.395Z,51.06
2024-05-09T10:06:01.301Z,54.21
2024-05-09T10:07:01.327Z,53.86
2024-05-09T10:08:01.788Z,57.42
2024-05-09T10:09:01.798Z,56.76
2024-05-09T10:10:04.148Z,55.50
2024-05-09T10:11:01.444Z,55.53
2024-05-09T10:12:01.486Z,54.86
2024-05-09T10:13:01.534Z,55.51
2024-05-09T10:14:04.282Z,54.34
2024-05-09T10:15:01.342Z,55.98
2024-05-09T10:16:01.366Z,52.09
2024-05-09T10:17:02.463Z,48.98
2024-05-09T10:18:01.502Z,50.61
2024-05-09T10:19:01.420Z,47.14
2024-05-09T10:20:01.312Z,44.60
2024-05-09T10:21:01.251Z,42.84
2024-05-09T10:22:01.328Z,50.00
2024-05-09T10:23:01.848Z,46.31
2024-05-09T10:24:01.215Z,45.00
2024-05-09T10:25:02.772Z,40.55
2024-05-09T10:26:01.357Z,42.40
2024-05-09T10:27:01.231Z,42.35
2024-05-09T10:28:01.274Z,39.24
2024-05-09T10:29:01.207Z,35.34
2024-05-09T10:30:01.223Z,33.44
2024-05-09T10:31:01.208Z,32.09
2024-05-09T10:32:01.214Z,49.63
2024-05-09T10:33:01.276Z,50.83
2024-05-09T10:34:01.431Z,53.13
2024-05-09T10:35:01.230Z,50.78
2024-05-09T10:36:01.125Z,55.53
2024-05-09T10:37:02.010Z,51.55
2024-05-09T10:38:01.082Z,52.16
2024-05-09T10:39:01.073Z,52.15
2024-05-09T10:40:01.085Z,52.94
2024-05-09T10:41:01.050Z,53.89
2024-05-09T10:42:01.056Z,52.05
2024-05-09T10:43:04.454Z,54.46
2024-05-09T10:44:01.032Z,54.48
2024-05-09T10:45:01.041Z,49.41
2024-05-09T10:46:01.137Z,48.48
2024-05-09T10:47:01.091Z,52.46
2024-05-09T10:48:01.277Z,47.93
2024-05-09T10:49:04.204Z,50.37
2024-05-09T10:50:01.141Z,50.22
2024-05-09T10:51:01.127Z,48.10
2024-05-09T10:52:01.120Z,44.34
2024-05-09T10:53:01.026Z,42.74
2024-05-09T10:54:01.021Z,41.88
2024-05-09T10:55:01.722Z,50.00
2024-05-09T10:56:01.004Z,52.65
2024-05-09T10:57:00.958Z,50.00
2024-05-09T10:58:00.967Z,50.00
2024-05-09T10:59:00.993Z,50.57
2024-05-09T11:00:01.021Z,52.01
2024-05-09T11:01:02.451Z,52.65
2024-05-09T11:02:01.060Z,53.63
2024-05-09T11:03:01.090Z,51.68
2024-05-09T11:04:01.144Z,52.64
2024-05-09T11:05:01.187Z,49.67
2024-05-09T11:06:00.951Z,51.04
2024-05-09T11:07:02.816Z,47.92
2024-05-09T11:08:00.916Z,48.17
2024-05-09T11:09:00.922Z,46.37
2024-05-09T11:10:00.932Z,45.49
2024-05-09T11:11:00.860Z,42.05
2024-05-09T11:12:00.941Z,41.31
2024-05-09T11:13:00.891Z,39.42
2024-05-09T11:14:00.838Z,34.06
2024-05-09T11:15:00.833Z,33.31
2024-05-09T11:16:00.849Z,30.31
2024-05-09T11:17:00.784Z,29.48
2024-05-09T11:18:00.950Z,47.22
2024-05-09T11:19:00.908Z,50.31
2024-05-09T11:20:00.857Z,50.42
2024-05-09T11:21:00.824Z,51.53
2024-05-09T11:22:00.836Z,52.28
2024-05-09T11:23:00.838Z,54.69
2024-05-09T11:24:00.910Z,53.35
2024-05-09T11:25:00.967Z,51.46
2024-05-09T11:26:00.983Z,50.88
2024-05-09T11:27:01.012Z,50.18
2024-05-09T11:28:01.198Z,53.80
2024-05-09T11:29:01.157Z,50.87
2024-05-09T11:30:01.168Z,51.90
2024-05-09T11:31:01.276Z,49.46
2024-05-09T11:32:01.334Z,52.41
2024-05-09T11:33:01.409Z,51.93
2024-05-09T11:34:01.437Z,51.93
2024-05-09T11:35:01.402Z,54.72
2024-05-09T11:36:01.474Z,54.66
2024-05-09T11:37:01.544Z,61.49
2024-05-09T11:38:02.345Z,64.04
2024-05-09T11:39:01.646Z,63.93
2024-05-09T11:40:01.711Z,64.57
2024-05-09T11:41:01.740Z,64.65
2024-05-09T11:42:01.789Z,61.20
2024-05-09T11:43:01.907Z,66.13
2024-05-09T11:44:01.898Z,63.04
2024-05-09T11:45:01.906Z,64.41
2024-05-09T11:46:02.057Z,63.81
2024-05-09T11:47:01.990Z,62.76
2024-05-09T11:48:03.076Z,60.67
2024-05-09T11:49:02.315Z,62.50
2024-05-09T11:50:02.336Z,58.51
2024-05-09T11:51:02.181Z,59.94
2024-05-09T11:52:02.248Z,60.06
2024-05-09T11:53:02.252Z,60.26
2024-05-09T11:54:02.118Z,60.52
2024-05-09T11:55:02.128Z,62.16
2024-05-09T11:56:02.144Z,64.10
2024-05-09T11:57:02.076Z,66.79
2024-05-09T11:58:02.175Z,63.39
2024-05-09T11:59:02.434Z,63.55
2024-05-09T12:00:02.321Z,63.73
2024-05-09T12:01:02.107Z,65.04
2024-05-09T12:02:02.148Z,66.97
2024-05-09T12:03:01.989Z,68.55
2024-05-09T12:04:02.167Z,67.36
2024-05-09T12:05:03.054Z,70.43
2024-05-09T12:06:02.118Z,65.36
2024-05-09T12:07:01.960Z,65.84
2024-05-09T12:08:02.151Z,68.77
2024-05-09T12:09:02.352Z,67.99
2024-05-09T12:10:02.072Z,69.77
2024-05-09T12:11:02.120Z,69.71
2024-05-09T12:12:02.097Z,70.16
2024-05-09T12:13:02.367Z,65.06
2024-05-09T12:14:02.152Z,69.05
2024-05-09T12:15:02.164Z,67.28
2024-05-09T12:16:02.365Z,66.53
2024-05-09T12:17:02.347Z,66.58
2024-05-09T12:18:03.916Z,71.52
2024-05-09T12:19:02.449Z,69.81
2024-05-09T12:20:02.522Z,74.59
2024-05-09T12:21:02.334Z,71.97
2024-05-09T12:22:02.452Z,69.24
2024-05-09T12:23:02.419Z,68.43
2024-05-09T12:24:02.849Z,68.20
2024-05-09T12:25:02.491Z,68.16
2024-05-09T12:26:02.468Z,67.99
2024-05-09T12:27:02.486Z,65.60
2024-05-09T12:28:02.582Z,66.56
2024-05-09T12:29:03.346Z,62.80
2024-05-09T12:30:07.189Z,62.51
2024-05-09T12:31:02.601Z,62.50
2024-05-09T12:32:02.567Z,61.19
2024-05-09T12:33:02.651Z,63.16
2024-05-09T12:34:02.550Z,63.17
2024-05-09T12:35:02.429Z,62.53
2024-05-09T12:36:02.413Z,62.70
2024-05-09T12:37:02.472Z,62.78
2024-05-09T12:38:02.392Z,63.56
2024-05-09T12:39:02.385Z,63.66
2024-05-09T12:40:03.685Z,63.42
2024-05-09T12:41:02.370Z,63.48
2024-05-09T12:42:02.370Z,63.76
2024-05-09T12:43:02.379Z,63.27
2024-05-09T12:44:02.237Z,63.39
2024-05-09T12:45:02.202Z,61.21
2024-05-09T12:46:02.264Z,64.60
2024-05-09T12:47:02.141Z,59.48
2024-05-09T12:48:02.239Z,61.17
2024-05-09T12:49:02.266Z,64.94
2024-05-09T12:50:02.932Z,69.93
2024-05-09T12:51:02.096Z,68.75
2024-05-09T12:52:02.108Z,70.19
2024-05-09T12:53:02.959Z,67.91
2024-05-09T12:54:01.988Z,69.74
2024-05-09T12:55:02.028Z,67.94
2024-05-09T12:56:03.644Z,69.65
2024-05-09T12:57:01.932Z,70.79